Time;durP1;ratioP1;P1;durP2;ratioP2;P2;SDS_P1;SDS_P2;PMS_P1;PMS_P2;Temp;Humidity;BMP_temperature;BMP_pressure;BME280_temperature;BME280_humidity;BME280_pressure;Samples;Min_cycle;Max_cycle;Signal;HPM_P1;HPM_P2
2021/04/13 00:02:46;;;;;;;9.20;5.43;;;15.40;99.90;;;;;;5031175;28;20102;-78
2021/04/13 00:05:44;;;;;;;9.93;6.05;;;15.30;99.90;;;;;;5030648;28;20029;-76
2021/04/13 00:08:18;;;;;;;12.40;6.15;;;15.10;99.90;;;;;;5030957;28;20035;-75
2021/04/13 00:10:52;;;;;;;10.32;5.63;;;15.20;99.90;;;;;;5030573;28;20028;-75
2021/04/13 00:13:20;;;;;;;8.48;5.15;;;15.20;99.90;;;;;;5031459;28;20033;-77
2021/04/13 00:15:52;;;;;;;8.65;5.60;;;15.10;99.90;;;;;;5030052;28;20037;-76
2021/04/13 00:18:26;;;;;;;11.02;4.95;;;15.30;99.90;;;;;;5031205;28;20497;-75
2021/04/13 00:21:01;;;;;;;9.43;4.53;;;14.90;99.90;;;;;;5033809;28;20059;-77
2021/04/13 00:23:28;;;;;;;7.45;5.25;;;14.90;99.90;;;;;;5027567;28;20041;-78
2021/04/13 00:26:00;;;;;;;8.68;4.93;;;14.80;99.90;;;;;;5014736;28;20053;-76
2021/04/13 00:28:56;;;;;;;10.82;5.65;;;14.90;99.90;;;;;;5015548;28;20026;-76
2021/04/13 00:31:47;;;;;;;8.55;5.40;;;14.80;99.90;;;;;;4998655;28;20121;-77
2021/04/13 00:34:23;;;;;;;8.82;5.07;;;14.60;99.90;;;;;;5014703;28;20067;-76
2021/04/13 00:36:53;;;;;;;8.68;5.60;;;14.70;99.90;;;;;;5015111;28;20046;-75
2021/04/13 00:39:27;;;;;;;7.32;5.22;;;14.40;99.90;;;;;;5014538;28;20049;-77
2021/04/13 00:41:57;;;;;;;8.38;5.05;;;14.40;99.90;;;;;;5015015;28;20409;-77
2021/04/13 00:44:24;;;;;;;12.20;5.50;;;14.60;99.90;;;;;;5014582;28;20036;-77
2021/04/13 00:47:03;;;;;;;8.65;5.35;;;14.50;99.90;;;;;;5014884;28;20385;-77
2021/04/13 00:49:31;;;;;;;7.82;5.18;;;14.50;99.90;;;;;;5014757;28;20022;-77
2021/04/13 00:52:08;;;;;;;12.05;5.47;;;14.60;99.90;;;;;;5015086;28;20029;-77
2021/04/13 00:54:51;;;;;;;7.20;5.03;;;14.60;99.90;;;;;;5014444;28;20018;-78
2021/04/13 00:57:32;;;;;;;8.00;5.65;;;14.50;99.90;;;;;;5015389;28;20045;-76
2021/04/13 01:00:00;;;;;;;10.65;5.07;;;14.20;99.90;;;;;;5014126;28;20065;-77
2021/04/13 01:02:29;;;;;;;6.45;5.05;;;14.20;99.90;;;;;;5015090;28;20054;-75
2021/04/13 01:05:17;;;;;;;6.90;5.50;;;14.30;99.90;;;;;;5014230;28;20051;-76
2021/04/13 01:07:48;;;;;;;10.20;5.75;;;14.30;99.90;;;;;;5014867;28;20049;-76
2021/04/13 01:10:21;;;;;;;7.75;5.28;;;14.20;99.90;;;;;;5014337;28;20477;-77
2021/04/13 01:13:02;;;;;;;8.55;5.25;;;14.40;99.90;;;;;;5015033;28;20084;-79
2021/04/13 01:15:28;;;;;;;8.13;5.32;;;14.10;99.90;;;;;;5014190;28;20034;-78
2021/04/13 01:17:54;;;;;;;10.05;4.85;;;14.00;99.90;;;;;;5014323;28;20014;-78
2021/04/13 01:20:35;;;;;;;8.48;5.30;;;14.00;99.90;;;;;;5014164;28;20024;-78
2021/04/13 01:23:13;;;;;;;;;;;14.00;99.90;;;;;;5017201;28;20065;-76
2021/04/13 01:25:43;;;;;;;7.60;4.95;;;14.30;99.90;;;;;;5033521;28;20341;-76
2021/04/13 01:28:11;;;;;;;8.65;5.43;;;14.20;99.90;;;;;;5034400;28;20033;-76
2021/04/13 01:30:47;;;;;;;9.07;5.22;;;14.30;99.90;;;;;;5033198;28;20037;-75
2021/04/13 01:33:21;;;;;;;9.55;5.18;;;14.20;99.90;;;;;;5034073;28;20018;-75
2021/04/13 01:35:55;;;;;;;7.80;5.25;;;14.10;99.90;;;;;;5033332;28;20021;-77
2021/04/13 01:38:34;;;;;;;6.68;5.32;;;14.10;99.90;;;;;;5033914;28;20030;-75
2021/04/13 01:41:09;;;;;;;9.43;5.35;;;14.10;99.90;;;;;;5032955;28;20029;-76
2021/04/13 01:43:40;;;;;;;8.02;4.82;;;14.10;99.90;;;;;;5034132;28;20025;-76
2021/04/13 01:46:07;;;;;;;9.88;5.20;;;14.00;99.90;;;;;;5032855;28;20039;-78
2021/04/13 01:48:34;;;;;;;9.48;5.13;;;14.00;99.90;;;;;;5033802;28;20026;-77
2021/04/13 01:51:05;;;;;;;8.00;6.03;;;14.00;99.90;;;;;;5033043;28;20473;-75
2021/04/13 01:53:37;;;;;;;8.27;5.40;;;13.90;99.90;;;;;;5033497;28;20033;-76
2021/04/13 01:56:06;;;;;;;10.88;5.43;;;13.70;99.90;;;;;;5033060;28;20080;-75
2021/04/13 01:58:38;;;;;;;9.73;5.93;;;13.80;99.90;;;;;;5033828;28;20030;-76
2021/04/13 02:01:20;;;;;;;9.60;4.93;;;13.90;99.90;;;;;;5032664;28;20104;-75
2021/04/13 02:03:55;;;;;;;7.63;5.25;;;13.90;99.90;;;;;;5033361;28;20426;-77
2021/04/13 02:06:30;;;;;;;7.20;5.55;;;13.80;99.90;;;;;;5032839;28;20087;-79
2021/04/13 02:09:14;;;;;;;7.90;5.13;;;13.90;99.90;;;;;;5033311;28;20021;-75
2021/04/13 02:11:42;;;;;;;9.43;5.70;;;13.90;99.90;;;;;;5032787;28;20381;-75
2021/04/13 02:14:16;;;;;;;8.50;5.13;;;13.90;99.90;;;;;;5033663;28;20381;-76
2021/04/13 02:16:50;;;;;;;8.88;5.07;;;13.90;99.90;;;;;;5032446;28;20025;-75
2021/04/13 02:19:17;;;;;;;8.32;5.03;;;13.90;99.90;;;;;;5033167;28;20033;-74
2021/04/13 02:21:49;;;;;;;7.32;5.30;;;13.90;99.90;;;;;;5032479;28;20378;-76
2021/04/13 02:24:23;;;;;;;8.45;5.75;;;14.00;99.90;;;;;;5021852;28;20022;-76
2021/04/13 02:26:57;;;;;;;8.52;5.13;;;13.90;99.90;;;;;;5012552;28;20390;-76
2021/04/13 02:29:33;;;;;;;7.32;5.28;;;13.80;99.90;;;;;;5013138;28;20037;-76
2021/04/13 02:32:01;;;;;;;8.15;5.30;;;14.00;99.90;;;;;;5012125;28;20160;-77
2021/04/13 02:34:44;;;;;;;7.28;5.30;;;14.00;99.90;;;;;;5012861;28;20049;-77
2021/04/13 02:37:18;;;;;;;9.13;5.55;;;14.20;99.90;;;;;;5012404;28;20428;-75
2021/04/13 02:39:44;;;;;;;8.25;5.32;;;14.30;99.90;;;;;;5012863;28;20038;-78
2021/04/13 02:42:20;;;;;;;9.15;5.53;;;14.20;99.90;;;;;;5011308;28;20022;-76
2021/04/13 02:45:01;;;;;;;12.80;6.38;;;14.20;99.90;;;;;;5012878;28;20036;-76
2021/04/13 02:47:28;;;;;;;7.03;4.97;;;14.10;99.90;;;;;;5012182;28;20026;-77
2021/04/13 02:49:57;;;;;;;10.65;5.60;;;14.10;99.90;;;;;;5013043;28;20034;-75
2021/04/13 02:52:31;;;;;;;8.13;5.50;;;13.70;99.90;;;;;;5012057;28;20021;-78
2021/04/13 02:55:02;;;;;;;11.73;6.07;;;13.70;99.90;;;;;;5013149;28;20060;-74
2021/04/13 02:57:37;;;;;;;7.40;5.45;;;13.90;99.90;;;;;;5012182;28;20034;-77
2021/04/13 03:00:08;;;;;;;9.60;5.30;;;13.90;99.90;;;;;;5012788;28;20144;-78
2021/04/13 03:03:06;;;;;;;8.80;5.38;;;13.80;99.90;;;;;;5011945;28;20030;-77
2021/04/13 03:05:33;;;;;;;7.35;4.95;;;13.80;99.90;;;;;;4999407;28;20038;-76
2021/04/13 03:08:05;;;;;;;7.35;5.22;;;13.80;99.90;;;;;;5011928;28;20026;-80
2021/04/13 03:10:37;;;;;;;7.90;5.57;;;14.00;99.90;;;;;;5012640;28;20045;-78
2021/04/13 03:13:13;;;;;;;8.93;5.45;;;14.00;99.90;;;;;;5011978;28;20030;-79
2021/04/13 03:15:42;;;;;;;10.50;5.35;;;13.90;99.90;;;;;;5012371;28;20026;-79
2021/04/13 03:18:15;;;;;;;8.52;6.00;;;13.70;99.90;;;;;;5011640;28;20034;-78
2021/04/13 03:20:46;;;;;;;9.15;5.85;;;13.90;99.90;;;;;;5012579;28;20032;-78
2021/04/13 03:23:13;;;;;;;11.52;5.95;;;13.90;99.90;;;;;;5012252;28;20033;-77
2021/04/13 03:25:49;;;;;;;8.40;5.40;;;13.80;99.90;;;;;;5031997;28;20029;-75
2021/04/13 03:28:19;;;;;;;11.55;6.07;;;13.90;99.90;;;;;;5031087;28;20029;-78
2021/04/13 03:30:45;;;;;;;8.03;5.90;;;13.90;99.90;;;;;;5032271;28;20428;-78
2021/04/13 03:33:37;;;;;;;10.10;5.95;;;13.90;99.90;;;;;;5031071;28;20055;-79
2021/04/13 03:36:25;;;;;;;8.43;5.95;;;13.60;99.90;;;;;;5028755;28;20111;-77
2021/04/13 03:39:19;;;;;;;8.43;5.82;;;13.70;99.90;;;;;;5031477;28;20041;-78
2021/04/13 03:41:47;;;;;;;10.95;6.88;;;13.90;99.90;;;;;;5030013;28;20033;-78
2021/04/13 03:44:18;;;;;;;7.30;5.00;;;13.90;99.90;;;;;;5032422;28;20021;-78
2021/04/13 03:46:45;;;;;;;8.45;5.38;;;13.80;99.90;;;;;;5031172;28;20159;-78
2021/04/13 03:49:33;;;;;;;9.30;5.93;;;13.90;99.90;;;;;;5031521;28;20543;-79
2021/04/13 03:52:09;;;;;;;6.68;5.25;;;13.90;99.90;;;;;;5031024;28;20029;-79
2021/04/13 03:54:37;;;;;;;7.80;5.32;;;13.90;99.90;;;;;;5031625;28;20355;-78
2021/04/13 03:57:04;;;;;;;9.32;5.28;;;13.70;99.90;;;;;;5030894;28;20473;-77
2021/04/13 03:59:37;;;;;;;9.18;5.55;;;13.80;99.90;;;;;;5013647;28;20049;-77
2021/04/13 04:02:06;;;;;;;8.88;5.25;;;13.90;99.90;;;;;;5030260;28;20036;-78
2021/04/13 04:04:35;;;;;;;8.45;5.63;;;13.90;99.90;;;;;;5031611;28;20037;-77
2021/04/13 04:07:29;;;;;;;8.70;5.97;;;13.90;99.90;;;;;;5030638;28;20511;-78
2021/04/13 04:09:54;;;;;;;7.57;5.57;;;14.00;99.90;;;;;;5031516;28;20394;-78
2021/04/13 04:12:24;;;;;;;8.43;6.05;;;14.00;99.90;;;;;;5030249;28;20100;-76
2021/04/13 04:15:01;;;;;;;8.63;5.63;;;13.90;99.90;;;;;;5031510;28;20033;-78
2021/04/13 04:17:30;;;;;;;8.13;5.25;;;13.90;99.90;;;;;;5030671;28;20079;-81
2021/04/13 04:20:06;;;;;;;8.70;5.50;;;13.90;99.90;;;;;;5031598;28;20393;-79
2021/04/13 04:22:35;;;;;;;8.63;5.70;;;13.90;99.90;;;;;;5030209;28;20060;-79
2021/04/13 04:25:14;;;;;;;8.55;5.80;;;13.80;99.90;;;;;;5017054;28;20026;-78
2021/04/13 04:27:41;;;;;;;10.98;6.13;;;13.90;99.90;;;;;;5010904;28;20030;-76
2021/04/13 04:30:25;;;;;;;10.40;6.10;;;13.90;99.90;;;;;;5011626;28;20030;-79
2021/04/13 04:32:52;;;;;;;10.75;6.85;;;14.00;99.90;;;;;;5010698;28;20022;-74
2021/04/13 04:35:41;;;;;;;9.00;5.95;;;14.10;99.90;;;;;;5011344;28;20050;-75
2021/04/13 04:38:13;;;;;;;14.43;8.48;;;13.90;99.90;;;;;;5010409;28;20057;-75
2021/04/13 04:41:01;;;;;;;11.00;7.20;;;14.00;99.90;;;;;;5011037;28;20505;-76
2021/04/13 04:43:58;;;;;;;14.80;7.70;;;14.00;99.90;;;;;;5011105;28;20037;-77
2021/04/13 04:46:31;;;;;;;10.70;7.60;;;14.10;99.90;;;;;;4993753;28;20477;-76
2021/04/13 04:49:09;;;;;;;12.18;7.25;;;14.10;99.90;;;;;;5010770;28;20109;-79
2021/04/13 04:51:35;;;;;;;10.13;6.28;;;13.90;99.90;;;;;;5011435;28;20025;-78
2021/04/13 04:54:02;;;;;;;11.50;8.05;;;13.80;99.90;;;;;;5010218;28;20486;-78
2021/04/13 04:56:28;;;;;;;9.82;6.72;;;13.80;99.90;;;;;;5011222;28;20085;-78
2021/04/13 04:58:53;;;;;;;13.63;6.82;;;13.80;99.90;;;;;;5010565;28;20038;-77
2021/04/13 05:01:19;;;;;;;12.75;8.27;;;13.70;99.90;;;;;;5010793;28;20108;-77
2021/04/13 05:03:46;;;;;;;11.27;7.43;;;13.30;99.90;;;;;;5010350;28;20033;-75
2021/04/13 05:06:12;;;;;;;15.70;9.20;;;13.70;99.90;;;;;;5013078;28;20021;-79
2021/04/13 05:08:38;;;;;;;17.50;9.77;;;13.70;99.90;;;;;;5014175;28;20438;-80
2021/04/13 05:11:04;;;;;;;18.85;10.80;;;13.50;99.90;;;;;;5014659;28;20516;-79
2021/04/13 05:13:30;;;;;;;15.52;10.85;;;13.30;99.90;;;;;;5025164;28;20017;-79
2021/04/13 05:15:58;;;;;;;20.52;14.90;;;13.40;99.90;;;;;;5033575;28;20116;-82
2021/04/13 05:18:24;;;;;;;73.45;46.65;;;13.60;99.90;;;;;;5033533;28;20029;-82
2021/04/13 05:20:49;;;;;;;53.60;35.00;;;14.20;99.90;;;;;;5033867;28;20104;-83
2021/04/13 05:23:16;;;;;;;26.55;15.40;;;14.40;99.90;;;;;;5033199;28;20037;-79
2021/04/13 05:25:41;;;;;;;15.55;10.23;;;14.40;99.90;;;;;;5015156;28;20022;-78
2021/04/13 05:28:08;;;;;;;30.92;22.23;;;14.20;99.90;;;;;;4996012;28;20034;-81
2021/04/13 05:30:34;;;;;;;87.22;50.03;;;14.10;99.90;;;;;;4996377;28;20076;-82
2021/04/13 05:33:00;;;;;;;41.28;26.00;;;14.30;99.90;;;;;;5013801;28;20084;-82
2021/04/13 05:35:26;;;;;;;130.30;79.70;;;14.40;99.90;;;;;;5014269;28;20030;-77
2021/04/13 05:37:52;;;;;;;30.88;22.02;;;14.50;99.90;;;;;;4996052;28;20050;-77
2021/04/13 05:40:29;;;;;;;13.90;9.57;;;14.30;99.90;;;;;;5005368;28;20042;-78
2021/04/13 05:42:56;;;;;;;22.92;12.82;;;14.00;99.90;;;;;;5013468;28;20026;-77
2021/04/13 05:45:24;;;;;;;13.52;9.68;;;14.20;99.90;;;;;;5013439;28;20030;-77
2021/04/13 05:47:51;;;;;;;11.32;8.82;;;14.50;99.90;;;;;;5013707;28;20065;-78
2021/04/13 05:50:25;;;;;;;14.55;8.75;;;14.30;99.90;;;;;;4995864;28;21405;-76
2021/04/13 05:52:50;;;;;;;16.40;9.07;;;14.20;99.90;;;;;;5014033;28;20080;-77
2021/04/13 05:55:17;;;;;;;11.82;8.65;;;13.70;99.90;;;;;;5013466;28;20038;-77
2021/04/13 05:57:45;;;;;;;13.93;9.02;;;13.60;99.90;;;;;;5008086;28;20029;-77
2021/04/13 06:00:12;;;;;;;18.98;9.38;;;13.50;99.90;;;;;;5012417;28;20038;-75
2021/04/13 06:02:40;;;;;;;17.00;10.02;;;13.60;99.90;;;;;;5013717;28;20052;-77
2021/04/13 06:05:08;;;;;;;19.70;10.23;;;13.70;99.90;;;;;;5012966;28;20160;-80
2021/04/13 06:07:34;;;;;;;59.63;39.05;;;13.80;99.90;;;;;;5013752;28;20076;-79
2021/04/13 06:10:00;;;;;;;31.45;22.02;;;14.20;99.90;;;;;;5012622;28;20081;-78
2021/04/13 06:12:25;;;;;;;14.32;10.55;;;14.40;99.90;;;;;;5012984;28;20068;-78
2021/04/13 06:14:52;;;;;;;15.43;9.40;;;14.40;99.90;;;;;;5012864;28;20033;-78
2021/04/13 06:17:18;;;;;;;14.05;10.23;;;14.10;99.90;;;;;;5012132;28;20033;-77
2021/04/13 06:19:44;;;;;;;15.25;8.98;;;14.00;99.90;;;;;;5011033;28;20120;-78
2021/04/13 06:22:10;;;;;;;14.73;9.20;;;13.90;99.90;;;;;;5010670;28;20022;-78
2021/04/13 06:24:36;;;;;;;18.17;9.50;;;14.00;99.90;;;;;;5010387;28;20120;-77
2021/04/13 06:27:03;;;;;;;14.88;9.25;;;14.10;99.90;;;;;;5010799;28;20044;-78
2021/04/13 06:29:29;;;;;;;11.80;8.45;;;14.30;99.90;;;;;;5010746;28;20049;-77
2021/04/13 06:31:55;;;;;;;14.70;8.25;;;14.30;99.90;;;;;;4993653;28;20026;-79
2021/04/13 06:34:21;;;;;;;12.25;7.90;;;14.00;99.90;;;;;;5010816;28;20052;-78
2021/04/13 06:36:46;;;;;;;11.15;7.28;;;14.00;99.90;;;;;;5011112;28;20160;-77
2021/04/13 06:42:54;;;;;;;13.20;7.75;;;14.10;99.90;;;;;;5012827;28;20092;-78
2021/04/13 06:45:34;;;;;;;9.77;7.47;;;14.60;99.90;;;;;;4994505;28;20026;-78
2021/04/13 06:48:12;;;;;;;;;;;14.70;99.90;;;;;;5013288;28;20030;-78
2021/04/13 06:50:52;;;;;;;13.98;6.70;;;14.50;99.90;;;;;;5012117;28;20288;-78
2021/04/13 06:53:30;;;;;;;12.30;6.65;;;14.40;99.90;;;;;;5012590;28;20037;-78
2021/04/13 06:56:14;;;;;;;11.15;6.68;;;14.70;99.90;;;;;;4994412;28;20509;-77
2021/04/13 06:58:55;;;;;;;10.85;5.63;;;14.80;99.90;;;;;;4994793;28;20037;-77
2021/04/13 07:01:47;;;;;;;10.13;6.15;;;14.90;99.90;;;;;;5012071;28;20030;-77
2021/04/13 07:04:25;;;;;;;10.05;6.20;;;15.00;99.90;;;;;;5012057;28;20038;-78
2021/04/13 07:06:59;;;;;;;11.25;5.60;;;15.00;99.90;;;;;;4994632;28;20030;-78
2021/04/13 07:09:37;;;;;;;10.00;6.25;;;14.80;99.90;;;;;;5011440;28;20026;-79
2021/04/13 07:12:23;;;;;;;8.23;5.57;;;15.00;99.90;;;;;;5010638;28;20123;-78
2021/04/13 07:15:21;;;;;;;9.65;4.80;;;15.30;99.90;;;;;;4974718;28;20180;-77
2021/04/13 07:17:57;;;;;;;9.50;5.60;;;15.10;99.90;;;;;;4974776;28;20474;-77
2021/04/13 07:20:30;;;;;;;8.73;4.57;;;15.40;99.90;;;;;;4991924;28;20041;-79
2021/04/13 07:23:19;;;;;;;6.75;4.50;;;15.60;99.90;;;;;;4992385;28;20024;-81
2021/04/13 07:25:54;;;;;;;8.27;5.05;;;15.90;99.90;;;;;;5000689;28;20036;-78
2021/04/13 07:28:27;;;;;;;8.70;5.10;;;16.20;99.90;;;;;;5000632;28;20112;-78
2021/04/13 07:31:03;;;;;;;8.27;4.93;;;16.20;99.90;;;;;;5008840;28;20049;-80
2021/04/13 07:33:31;;;;;;;7.57;4.65;;;16.30;99.90;;;;;;4995821;28;20037;-79
2021/04/13 07:36:22;;;;;;;7.03;5.10;;;16.10;99.90;;;;;;5012692;28;20029;-78
2021/04/13 07:38:49;;;;;;;;;;;15.90;99.90;;;;;;5000606;28;20046;-79
2021/04/13 07:41:53;;;;;;;8.63;5.25;;;15.80;99.90;;;;;;4995169;28;20312;-78
2021/04/13 07:44:42;;;;;;;7.97;5.07;;;16.00;99.90;;;;;;5010276;28;20053;-78
2021/04/13 07:47:33;;;;;;;16.52;4.95;;;16.00;99.90;;;;;;5009793;28;20018;-79
2021/04/13 07:49:58;;;;;;;7.72;5.03;;;16.00;99.90;;;;;;5003332;28;20040;-79
2021/04/13 07:52:46;;;;;;;6.63;4.40;;;16.00;99.90;;;;;;5011437;28;20030;-78
2021/04/13 07:55:26;;;;;;;9.05;4.75;;;16.00;99.90;;;;;;5010610;28;20037;-78
2021/04/13 07:57:58;;;;;;;10.73;4.65;;;16.20;99.90;;;;;;5011213;28;20022;-77
2021/04/13 08:00:33;;;;;;;8.82;4.80;;;16.30;99.90;;;;;;5010444;28;20037;-77
2021/04/13 08:03:25;;;;;;;6.72;4.70;;;16.20;99.90;;;;;;5011497;28;20022;-80
2021/04/13 08:05:59;;;;;;;8.45;4.28;;;16.20;99.90;;;;;;4993514;28;20036;-80
2021/04/13 08:08:36;;;;;;;7.18;4.65;;;16.20;99.90;;;;;;5011152;28;20036;-77
2021/04/13 08:11:17;;;;;;;7.53;4.45;;;16.20;99.90;;;;;;5010859;28;20105;-79
2021/04/13 08:13:46;;;;;;;8.30;4.50;;;15.90;99.90;;;;;;5011324;28;20076;-78
2021/04/13 08:16:38;;;;;;;8.35;4.30;;;16.10;99.90;;;;;;5010400;28;20092;-80
2021/04/13 08:19:22;;;;;;;7.35;4.32;;;16.30;99.90;;;;;;5011343;28;20045;-80
2021/04/13 08:22:18;;;;;;;7.18;3.97;;;16.40;99.90;;;;;;5010261;28;20157;-79
2021/04/13 08:24:49;;;;;;;9.85;4.30;;;16.60;99.90;;;;;;5015859;28;20029;-80
2021/04/13 08:27:27;;;;;;;7.35;4.63;;;16.80;99.90;;;;;;5030109;28;20028;-79
2021/04/13 08:30:01;;;;;;;8.73;4.43;;;16.90;99.90;;;;;;5026881;28;20041;-79
2021/04/13 08:33:01;;;;;;;6.80;4.43;;;16.90;99.90;;;;;;5010167;28;20101;-80
2021/04/13 08:35:50;;;;;;;6.93;4.18;;;17.00;99.90;;;;;;4982730;28;20042;-81
2021/04/13 08:38:55;;;;;;;8.27;5.32;;;17.40;99.90;;;;;;4992290;28;20068;-81
2021/04/13 08:41:34;;;;;;;11.18;4.30;;;17.90;99.90;;;;;;4994142;28;20120;-82
2021/04/13 08:44:33;;;;;;;12.05;5.95;;;17.90;99.90;;;;;;5013729;28;20057;-81
2021/04/13 08:47:08;;;;;;;8.55;5.43;;;17.60;99.90;;;;;;4977004;28;20041;-83
2021/04/13 08:49:43;;;;;;;10.07;6.00;;;18.00;99.90;;;;;;4978061;28;20099;-83
2021/04/13 08:52:15;;;;;;;11.50;5.78;;;17.90;99.90;;;;;;4996220;28;20038;-83
2021/04/13 08:54:44;;;;;;;9.77;5.20;;;18.10;99.90;;;;;;5011702;28;20432;-82
2021/04/13 08:57:34;;;;;;;9.73;4.95;;;18.30;99.70;;;;;;4996972;28;20436;-82
2021/04/13 09:00:22;;;;;;;7.23;4.73;;;18.30;98.50;;;;;;4997207;28;20065;-83
2021/04/13 09:02:59;;;;;;;8.77;4.65;;;18.00;99.90;;;;;;4995898;28;20286;-82
2021/04/13 09:05:29;;;;;;;7.55;4.60;;;17.90;99.90;;;;;;5013136;28;20033;-83
2021/04/13 09:08:14;;;;;;;7.00;4.35;;;17.60;99.90;;;;;;5013329;28;20030;-79
2021/04/13 09:11:06;;;;;;;8.95;4.72;;;17.50;99.90;;;;;;5014525;28;20107;-83
2021/04/13 09:13:37;;;;;;;8.52;4.43;;;17.70;99.90;;;;;;5013144;28;20018;-79
2021/04/13 09:16:06;;;;;;;9.40;4.25;;;17.60;99.90;;;;;;5000181;28;20031;-79
2021/04/13 09:18:47;;;;;;;10.88;4.55;;;17.40;99.90;;;;;;5010581;28;20034;-80
2021/04/13 09:21:28;;;;;;;8.93;4.53;;;17.40;99.90;;;;;;5013514;28;20034;-81
2021/04/13 09:24:19;;;;;;;9.00;5.25;;;17.10;99.90;;;;;;5014391;28;20022;-81
2021/04/13 09:26:57;;;;;;;9.88;4.57;;;17.20;99.90;;;;;;4986009;28;20613;-78
2021/04/13 09:29:34;;;;;;;8.57;4.53;;;16.80;99.90;;;;;;5013768;28;20074;-79
2021/04/13 09:32:01;;;;;;;7.20;4.63;;;16.80;99.90;;;;;;4993722;28;20018;-78
2021/04/13 09:34:27;;;;;;;10.00;4.35;;;16.80;99.90;;;;;;4976382;28;20050;-79
2021/04/13 09:36:59;;;;;;;7.32;4.40;;;16.60;99.90;;;;;;5011121;28;20045;-77
2021/04/13 09:39:42;;;;;;;8.23;4.85;;;16.70;99.90;;;;;;4995221;28;20425;-78
2021/04/13 09:42:20;;;;;;;6.88;4.50;;;16.80;99.90;;;;;;4995785;28;20032;-77
2021/04/13 09:45:14;;;;;;;9.25;4.82;;;16.70;99.90;;;;;;5013518;28;20026;-79
2021/04/13 09:48:01;;;;;;;11.18;5.65;;;16.80;99.90;;;;;;4994876;28;20032;-79
2021/04/13 09:50:46;;;;;;;7.45;4.45;;;16.90;99.90;;;;;;5011199;28;20088;-79
2021/04/13 09:53:36;;;;;;;7.75;4.70;;;17.00;99.90;;;;;;4972651;28;20042;-79
2021/04/13 09:56:23;;;;;;;7.60;5.03;;;17.20;99.90;;;;;;4994859;28;20036;-79
2021/04/13 09:59:21;;;;;;;7.97;4.85;;;17.30;99.90;;;;;;5012030;28;20036;-78
2021/04/13 10:02:31;;;;;;;7.80;4.30;;;17.40;99.90;;;;;;5011303;28;20033;-79
2021/04/13 10:05:03;;;;;;;10.20;6.03;;;17.40;99.90;;;;;;5009986;28;20058;-79
2021/04/13 10:07:31;;;;;;;9.45;5.47;;;17.70;99.90;;;;;;5011623;28;20509;-77
2021/04/13 10:09:58;;;;;;;10.63;5.85;;;17.90;99.90;;;;;;5009703;28;20518;-80
2021/04/13 10:12:55;;;;;;;12.65;6.85;;;17.90;99.90;;;;;;5010269;28;20029;-80
2021/04/13 10:15:58;;;;;;;10.38;4.85;;;18.00;99.90;;;;;;5009690;28;20052;-78
2021/04/13 10:18:42;;;;;;;12.40;5.30;;;17.40;99.90;;;;;;5002788;28;20412;-79
2021/04/13 10:21:39;;;;;;;7.03;5.18;;;17.10;99.90;;;;;;4998612;28;20060;-81
2021/04/13 10:24:38;;;;;;;8.45;4.57;;;17.50;99.90;;;;;;5011334;28;20073;-81
2021/04/13 10:27:23;;;;;;;7.18;4.57;;;17.10;99.90;;;;;;4997458;28;20026;-78
2021/04/13 10:29:48;;;;;;;8.40;5.47;;;16.90;99.90;;;;;;5011381;28;20728;-77
2021/04/13 10:32:41;;;;;;;7.60;4.32;;;17.00;99.90;;;;;;5011041;28;20057;-80
2021/04/13 10:35:09;;;;;;;7.80;4.72;;;17.20;99.90;;;;;;5010982;28;20080;-79
2021/04/13 10:38:18;;;;;;;9.40;5.00;;;17.20;99.90;;;;;;5010833;28;20036;-80
2021/04/13 10:41:21;;;;;;;10.55;4.90;;;17.50;99.90;;;;;;5011031;28;20034;-79
2021/04/13 10:43:55;;;;;;;9.60;4.85;;;17.60;99.90;;;;;;5010540;28;20029;-80
2021/04/13 10:46:58;;;;;;;8.60;4.97;;;17.40;99.90;;;;;;5011474;28;20137;-78
2021/04/13 10:49:35;;;;;;;7.00;4.85;;;17.70;99.90;;;;;;4995732;28;20045;-80
2021/04/13 10:52:18;;;;;;;9.90;5.03;;;17.80;99.90;;;;;;5009888;28;20081;-79
2021/04/13 10:55:16;;;;;;;12.65;5.13;;;17.90;99.90;;;;;;4992830;28;20033;-79
2021/04/13 10:58:06;;;;;;;9.05;4.93;;;18.10;99.90;;;;;;4994702;28;20108;-77
2021/04/13 11:00:37;;;;;;;11.77;5.00;;;18.20;99.90;;;;;;5003273;28;20442;-79
2021/04/13 11:03:35;;;;;;;7.93;4.95;;;18.40;99.90;;;;;;5024301;28;20388;-80
2021/04/13 11:06:07;;;;;;;14.40;4.95;;;18.50;99.70;;;;;;5015824;28;20026;-79
2021/04/13 11:08:41;;;;;;;12.48;5.20;;;18.70;98.80;;;;;;5012187;28;20026;-81
2021/04/13 11:11:31;;;;;;;9.93;5.35;;;19.40;98.80;;;;;;5012314;28;20029;-80
2021/04/13 11:14:34;;;;;;;14.30;4.88;;;19.90;97.50;;;;;;5011667;28;20025;-79
2021/04/13 11:17:24;;;;;;;11.90;5.65;;;20.30;96.30;;;;;;5010644;28;20022;-81
2021/04/13 11:20:14;;;;;;;13.02;4.68;;;20.30;94.30;;;;;;5011370;28;20037;-82
2021/04/13 11:23:17;;;;;;;8.82;4.47;;;20.00;93.80;;;;;;5011464;28;20026;-82
2021/04/13 11:26:20;;;;;;;10.07;4.47;;;19.80;93.70;;;;;;5025996;28;20025;-81
2021/04/13 11:29:23;;;;;;;10.05;4.55;;;19.90;93.20;;;;;;5007789;28;20036;-82
2021/04/13 11:32:24;;;;;;;8.80;5.00;;;19.80;92.30;;;;;;5011816;28;20073;-83
2021/04/13 11:35:09;;;;;;;11.35;3.97;;;19.90;92.00;;;;;;5011594;28;20061;-83
2021/04/13 11:38:14;;;;;;;10.73;4.15;;;20.00;92.00;;;;;;5012012;28;20022;-83
2021/04/13 11:41:15;;;;;;;9.38;4.05;;;19.60;90.80;;;;;;5012042;28;20061;-82
2021/04/13 11:44:02;;;;;;;7.55;4.45;;;19.30;91.70;;;;;;4979832;28;20037;-81
2021/04/13 11:46:42;;;;;;;12.05;3.97;;;19.50;91.40;;;;;;5011845;28;20026;-77
2021/04/13 11:49:26;;;;;;;11.00;4.38;;;19.60;91.70;;;;;;5011681;28;20034;-79
2021/04/13 11:51:52;;;;;;;14.38;4.70;;;19.20;91.40;;;;;;5011625;28;20129;-76
2021/04/13 11:54:36;;;;;;;9.02;4.03;;;19.00;92.20;;;;;;5010706;28;20038;-76
2021/04/13 11:57:11;;;;;;;9.68;4.93;;;18.80;92.90;;;;;;5011699;28;20489;-77
2021/04/13 11:59:36;;;;;;;8.18;4.78;;;19.10;93.00;;;;;;5010986;28;20034;-77
2021/04/13 12:02:26;;;;;;;11.38;4.75;;;19.20;92.70;;;;;;5011360;28;20432;-76
2021/04/13 12:04:55;;;;;;;10.52;5.07;;;19.30;93.50;;;;;;5011044;28;20030;-77
2021/04/13 12:07:47;;;;;;;9.18;4.43;;;19.00;93.70;;;;;;5011240;28;20117;-76
2021/04/13 12:10:33;;;;;;;10.57;4.80;;;19.20;93.20;;;;;;5010792;28;20026;-75
2021/04/13 12:13:01;;;;;;;12.45;4.25;;;19.10;94.10;;;;;;5004325;28;20052;-78
2021/04/13 12:15:26;;;;;;;8.85;4.28;;;19.20;94.00;;;;;;4992721;28;20028;-75
2021/04/13 12:17:55;;;;;;;11.02;5.45;;;18.80;94.50;;;;;;4994099;28;20029;-76
2021/04/13 12:20:23;;;;;;;11.02;5.07;;;19.00;94.60;;;;;;5010783;28;20046;-79
2021/04/13 12:23:10;;;;;;;9.82;4.13;;;19.20;94.80;;;;;;5011384;28;20049;-79
2021/04/13 12:25:50;;;;;;;9.63;4.60;;;19.30;94.60;;;;;;4983335;28;20095;-77
2021/04/13 12:28:34;;;;;;;13.15;5.03;;;19.50;94.30;;;;;;5011329;28;20102;-77
2021/04/13 12:31:05;;;;;;;8.55;4.22;;;19.60;93.70;;;;;;5011056;28;20030;-78
2021/04/13 12:33:31;;;;;;;9.05;4.88;;;19.30;93.70;;;;;;5010413;28;20077;-77
2021/04/13 12:36:05;;;;;;;8.02;4.15;;;19.30;93.10;;;;;;5010678;28;20120;-77
2021/04/13 12:38:46;;;;;;;6.70;4.20;;;19.50;93.60;;;;;;5011028;28;20339;-77
2021/04/13 12:41:34;;;;;;;12.45;4.20;;;19.50;93.50;;;;;;5010922;28;20204;-78
2021/04/13 12:44:13;;;;;;;8.32;3.85;;;20.00;93.40;;;;;;5010266;28;20018;-77
2021/04/13 12:46:43;;;;;;;7.40;4.30;;;20.10;93.10;;;;;;4993830;28;20117;-78
2021/04/13 12:49:11;;;;;;;7.60;4.10;;;19.80;93.70;;;;;;5010419;28;20362;-77
2021/04/13 12:51:54;;;;;;;8.05;4.68;;;19.60;94.10;;;;;;4993786;28;20084;-77
2021/04/13 12:54:31;;;;;;;9.95;4.65;;;19.20;95.40;;;;;;5010459;28;20030;-78
2021/04/13 12:57:20;;;;;;;8.60;4.57;;;19.00;96.30;;;;;;4994984;28;20104;-76
2021/04/13 12:59:49;;;;;;;7.85;4.30;;;19.00;97.10;;;;;;5009479;28;20029;-77
2021/04/13 13:02:31;;;;;;;11.75;5.20;;;19.30;96.30;;;;;;5010676;28;20026;-78
2021/04/13 13:04:57;;;;;;;6.70;3.90;;;19.20;95.50;;;;;;5009924;28;20076;-78
2021/04/13 13:07:26;;;;;;;8.50;4.78;;;19.40;95.40;;;;;;5010498;28;20379;-77
2021/04/13 13:09:54;;;;;;;9.88;5.10;;;19.60;94.20;;;;;;5010101;28;20022;-75
2021/04/13 13:12:33;;;;;;;8.70;5.10;;;19.50;94.20;;;;;;5010610;28;20033;-80
2021/04/13 13:15:07;;;;;;;9.07;4.35;;;19.40;94.00;;;;;;5010191;28;20025;-78
2021/04/13 13:17:38;;;;;;;7.82;4.07;;;19.10;94.30;;;;;;5012981;28;20069;-81
2021/04/13 13:20:16;;;;;;;10.20;4.05;;;19.20;94.10;;;;;;5029624;28;20068;-80
2021/04/13 13:22:52;;;;;;;10.00;3.92;;;19.50;94.20;;;;;;5012821;28;20025;-77
2021/04/13 13:25:24;;;;;;;6.25;4.00;;;19.20;94.00;;;;;;5029970;28;20088;-79
2021/04/13 13:28:03;;;;;;;8.07;4.25;;;18.90;94.90;;;;;;5033269;28;20025;-76
2021/04/13 13:30:29;;;;;;;7.60;4.45;;;18.60;95.00;;;;;;5015500;28;20053;-77
2021/04/13 13:32:56;;;;;;;6.05;3.50;;;18.50;95.20;;;;;;5034173;28;20066;-75
2021/04/13 13:35:22;;;;;;;8.23;3.95;;;18.60;95.30;;;;;;5013005;28;20045;-77
2021/04/13 13:37:53;;;;;;;7.35;3.63;;;18.60;96.10;;;;;;5013511;28;20037;-77